Terminal Aerodrome Forecast
Issued by NWS

Home | Current Version | Previous Version | Text Only | Print | Product List | Glossary On
Versions: 1 2 3 4 5 6 7 8 9 10 11 12
693
FTUS45 KABQ 261122
TAFSAF
TAF
KSAF 261122Z 2612/2712 01005KT P6SM SKC
     FM261700 23013KT P6SM SKC
     FM262000 26018G28KT P6SM FEW100
     FM270100 30009KT P6SM SCT080
     FM270900 36006KT P6SM FEW080=

USA.gov is the U.S. government's official web portal to all federal, state and local government web resources and services.